Time;durP1;ratioP1;P1;durP2;ratioP2;P2;SDS_P1;SDS_P2;PMS_P1;PMS_P2;Temp;Humidity;BMP_temperature;BMP_pressure;BME280_temperature;BME280_humidity;BME280_pressure;Samples;Min_cycle;Max_cycle;Signal;HPM_P1;HPM_P2
2024/01/28 00:02:05;;;;;;;11.50;3.10;;;26.60;99.90;;;;;;5113229;28;20262;-68
2024/01/28 00:04:32;;;;;;;9.27;3.07;;;27.20;99.90;;;;;;5112235;28;20659;-71
2024/01/28 00:07:00;;;;;;;7.87;2.60;;;28.50;99.90;;;;;;5113293;28;20171;-72
2024/01/28 00:09:28;;;;;;;9.50;3.20;;;29.00;99.90;;;;;;5114021;28;20587;-70
2024/01/28 00:11:55;;;;;;;10.63;3.50;;;29.60;99.90;;;;;;5112713;28;20177;-67
2024/01/28 00:14:25;;;;;;;9.43;3.00;;;30.20;99.90;;;;;;5113081;28;20213;-72
2024/01/28 00:16:52;;;;;;;13.67;3.83;;;30.40;99.90;;;;;;5112616;28;20228;-68
2024/01/28 00:19:20;;;;;;;12.73;2.90;;;30.70;99.90;;;;;;5113654;28;20298;-69
2024/01/28 00:21:48;;;;;;;9.40;2.97;;;30.80;99.90;;;;;;5112900;28;20274;-68
2024/01/28 00:24:18;;;;;;;7.00;2.60;;;31.10;99.90;;;;;;5113471;28;20549;-69
2024/01/28 00:26:45;;;;;;;7.13;2.53;;;31.50;99.90;;;;;;5112544;28;20206;-67
2024/01/28 00:29:13;;;;;;;12.75;2.67;;;31.40;99.90;;;;;;5112664;28;20660;-68
2024/01/28 00:31:41;;;;;;;9.50;2.95;;;31.60;99.90;;;;;;5113177;28;20671;-68
2024/01/28 00:34:08;;;;;;;10.48;2.80;;;31.40;99.90;;;;;;5113634;28;20589;-67
2024/01/28 00:36:36;;;;;;;9.23;2.28;;;31.70;99.90;;;;;;5112889;28;20174;-68
2024/01/28 00:39:05;;;;;;;10.90;2.58;;;31.20;99.90;;;;;;5112555;28;20273;-71
2024/01/28 00:41:32;;;;;;;7.18;2.72;;;31.30;99.90;;;;;;5112440;28;20171;-69
2024/01/28 00:44:01;;;;;;;10.45;2.90;;;31.70;99.90;;;;;;5111783;28;20637;-71
2024/01/28 00:46:29;;;;;;;7.50;2.70;;;31.60;99.90;;;;;;5111815;28;20178;-70
2024/01/28 00:48:57;;;;;;;7.97;2.80;;;32.20;99.90;;;;;;5112992;28;20278;-70
2024/01/28 00:51:24;;;;;;;9.57;2.50;;;32.30;99.90;;;;;;5112410;28;20178;-70
2024/01/28 00:53:52;;;;;;;10.40;3.03;;;32.00;99.90;;;;;;5113100;28;20193;-70
2024/01/28 00:56:20;;;;;;;8.05;3.47;;;31.80;99.90;;;;;;5113067;28;20710;-70
2024/01/28 00:58:48;;;;;;;8.23;3.03;;;32.10;99.90;;;;;;5111957;28;20202;-71
2024/01/28 01:01:16;;;;;;;7.57;2.63;;;31.90;99.90;;;;;;5112780;28;20190;-70
2024/01/28 01:03:44;;;;;;;9.05;2.80;;;31.00;99.90;;;;;;5112607;28;20197;-70
2024/01/28 01:06:12;;;;;;;9.50;3.73;;;29.70;99.90;;;;;;5112178;28;20645;-68
2024/01/28 01:08:40;;;;;;;10.93;2.93;;;28.90;99.90;;;;;;5112303;28;20195;-73
2024/01/28 01:11:10;;;;;;;13.90;3.88;;;28.40;99.90;;;;;;5112085;28;20197;-69
2024/01/28 01:17:00;;;;;;;6.87;2.90;;;28.10;99.90;;;;;;5125005;27;20704;-73
2024/01/28 01:19:27;;;;;;;8.27;2.83;;;28.10;99.90;;;;;;5112722;28;20193;-71
2024/01/28 01:21:57;;;;;;;6.77;2.60;;;28.10;99.90;;;;;;5112141;28;20628;-71
2024/01/28 01:24:25;;;;;;;11.23;3.07;;;28.30;99.90;;;;;;5112637;28;20236;-71
2024/01/28 01:26:53;;;;;;;8.90;3.07;;;28.60;99.90;;;;;;5112366;28;20552;-73
2024/01/28 01:29:20;;;;;;;10.57;2.80;;;28.70;99.90;;;;;;5111835;28;20689;-73
2024/01/28 01:31:48;;;;;;;9.87;2.73;;;28.50;99.90;;;;;;5112315;28;20186;-69
2024/01/28 01:34:16;;;;;;;8.73;2.93;;;28.30;99.90;;;;;;5094015;28;20221;-69
2024/01/28 01:36:45;;;;;;;8.23;2.67;;;28.20;99.90;;;;;;5111726;28;20186;-68
2024/01/28 01:39:13;;;;;;;12.17;3.17;;;28.50;99.90;;;;;;5111965;28;20644;-69
2024/01/28 01:41:41;;;;;;;8.47;2.87;;;29.30;99.90;;;;;;5112269;28;20251;-70
2024/01/28 01:44:09;;;;;;;7.27;2.83;;;30.50;99.90;;;;;;5111866;28;20641;-69
2024/01/28 01:46:37;;;;;;;11.27;2.90;;;31.10;99.90;;;;;;5093979;28;20174;-72
2024/01/28 01:49:05;;;;;;;8.05;2.35;;;31.80;99.90;;;;;;5111887;28;20640;-69
2024/01/28 01:51:34;;;;;;;7.55;2.28;;;32.60;99.90;;;;;;5111796;28;20179;-70
2024/01/28 01:54:03;;;;;;;8.05;2.75;;;32.60;99.90;;;;;;5112209;28;20333;-72
2024/01/28 01:56:32;;;;;;;11.77;2.70;;;32.40;99.90;;;;;;5111943;28;20166;-70
2024/01/28 01:59:00;;;;;;;5.75;2.28;;;31.50;99.90;;;;;;5111180;28;20182;-72
2024/01/28 02:01:29;;;;;;;7.15;2.63;;;30.70;99.90;;;;;;5112157;28;20206;-70
2024/01/28 02:03:58;;;;;;;11.40;2.27;;;29.60;99.90;;;;;;5111732;28;20174;-69
2024/01/28 02:06:27;;;;;;;8.47;2.43;;;29.10;99.90;;;;;;5111486;28;20186;-70
2024/01/28 02:08:56;;;;;;;12.17;3.40;;;28.80;99.90;;;;;;5111550;28;20226;-70
2024/01/28 02:11:24;;;;;;;7.78;2.13;;;29.20;99.90;;;;;;5111950;28;20182;-69
2024/01/28 02:13:52;;;;;;;7.77;2.53;;;29.10;99.90;;;;;;5111334;28;20182;-70
2024/01/28 02:16:20;;;;;;;7.83;2.50;;;28.80;99.90;;;;;;5111244;28;20190;-73
2024/01/28 02:18:48;;;;;;;8.87;2.20;;;28.40;99.90;;;;;;5111162;28;20265;-69
2024/01/28 02:21:16;;;;;;;9.67;2.67;;;28.30;99.90;;;;;;5111237;28;20182;-69
2024/01/28 02:23:43;;;;;;;9.67;2.70;;;28.40;99.90;;;;;;5111677;28;20633;-69
2024/01/28 02:26:11;;;;;;;9.83;2.73;;;28.30;99.90;;;;;;5111554;28;20186;-68
2024/01/28 02:32:01;;;;;;;9.30;2.63;;;28.50;99.90;;;;;;5095156;28;20671;-69
2024/01/28 02:34:29;;;;;;;12.23;3.10;;;28.30;99.90;;;;;;5094950;28;20190;-70
2024/01/28 02:36:56;;;;;;;10.15;3.05;;;29.50;99.90;;;;;;5095391;28;20207;-69
2024/01/28 02:39:24;;;;;;;6.90;2.50;;;30.50;99.90;;;;;;5112462;28;20189;-71
2024/01/28 02:41:52;;;;;;;9.67;2.87;;;30.10;99.90;;;;;;5115399;28;20178;-69
2024/01/28 02:44:19;;;;;;;8.57;2.43;;;29.60;99.90;;;;;;5115571;28;20182;-70
2024/01/28 02:46:47;;;;;;;11.50;2.77;;;29.10;99.90;;;;;;5115745;28;20174;-70
2024/01/28 02:49:15;;;;;;;7.67;2.30;;;29.20;99.90;;;;;;5114768;28;20252;-68
2024/01/28 02:51:45;;;;;;;6.50;2.30;;;29.50;99.90;;;;;;5115400;28;20174;-70
2024/01/28 02:54:13;;;;;;;8.10;2.47;;;29.90;99.90;;;;;;5115410;28;20183;-70
2024/01/28 02:56:41;;;;;;;7.57;2.07;;;30.40;99.90;;;;;;5114936;28;20223;-70
2024/01/28 02:59:10;;;;;;;8.70;1.83;;;31.30;99.90;;;;;;5115213;28;20191;-70
2024/01/28 03:01:50;;;;;;;7.35;1.90;;;31.20;99.90;;;;;;5115271;28;20179;-70
2024/01/28 03:04:17;;;;;;;11.23;2.67;;;30.90;99.90;;;;;;5114990;28;20170;-70
2024/01/28 03:06:45;;;;;;;10.32;2.28;;;31.30;99.90;;;;;;5115052;28;20179;-70
2024/01/28 03:09:13;;;;;;;5.80;2.35;;;31.50;99.90;;;;;;5114606;28;20652;-71
2024/01/28 03:11:41;;;;;;;7.80;2.10;;;31.10;99.90;;;;;;5114756;28;20538;-70
2024/01/28 03:14:10;;;;;;;10.37;2.40;;;31.50;99.90;;;;;;5096849;28;20182;-71
2024/01/28 03:16:37;;;;;;;10.50;2.37;;;31.20;99.90;;;;;;5114555;28;20329;-70
2024/01/28 03:19:05;;;;;;;10.88;2.50;;;31.30;99.90;;;;;;5114302;28;20213;-69
2024/01/28 03:21:33;;;;;;;5.07;1.80;;;31.40;99.90;;;;;;5114572;28;20182;-69
2024/01/28 03:24:01;;;;;;;6.72;2.38;;;31.20;99.90;;;;;;5114910;28;20175;-69
2024/01/28 03:26:28;;;;;;;9.27;2.30;;;30.30;99.90;;;;;;5114623;28;20182;-69
2024/01/28 03:28:56;;;;;;;12.50;2.22;;;30.40;99.90;;;;;;5114637;28;20191;-71
2024/01/28 03:31:24;;;;;;;9.93;2.83;;;30.70;99.90;;;;;;5114847;28;20257;-71
2024/01/28 03:33:51;;;;;;;14.45;2.50;;;30.70;99.90;;;;;;5114247;28;20182;-68
2024/01/28 03:36:19;;;;;;;6.40;2.20;;;30.30;99.90;;;;;;5114228;28;20259;-69
2024/01/28 03:38:47;;;;;;;10.77;2.10;;;30.60;99.90;;;;;;5114224;28;20214;-68
2024/01/28 03:41:15;;;;;;;10.53;2.73;;;30.40;99.90;;;;;;5113703;28;20185;-68
2024/01/28 03:43:46;;;;;;;8.03;2.37;;;30.90;99.90;;;;;;5114522;28;20179;-69
2024/01/28 03:46:14;;;;;;;10.60;2.77;;;30.30;99.90;;;;;;5114342;28;20178;-68
2024/01/28 03:48:42;;;;;;;8.53;2.53;;;30.30;99.90;;;;;;5113828;28;20214;-68
2024/01/28 03:51:09;;;;;;;9.30;2.30;;;31.00;99.90;;;;;;5114333;28;20322;-68
2024/01/28 03:53:37;;;;;;;11.88;2.58;;;31.20;99.90;;;;;;5114427;28;20167;-70
2024/01/28 03:56:07;;;;;;;8.82;2.53;;;31.00;99.90;;;;;;5113752;28;20265;-70
2024/01/28 03:58:35;;;;;;;7.20;2.00;;;30.90;99.90;;;;;;5113903;28;20664;-69
2024/01/28 04:01:03;;;;;;;6.63;2.20;;;30.70;99.90;;;;;;5114238;28;20167;-69
2024/01/28 04:03:30;;;;;;;7.75;2.08;;;30.70;99.90;;;;;;5114232;28;20181;-69
2024/01/28 04:05:58;;;;;;;8.03;2.20;;;30.90;99.90;;;;;;5114253;28;20657;-69
2024/01/28 04:08:26;;;;;;;10.10;2.27;;;30.40;99.90;;;;;;5113768;28;20185;-69
2024/01/28 04:10:53;;;;;;;9.68;2.58;;;30.60;99.90;;;;;;5112967;28;20537;-68
2024/01/28 04:13:21;;;;;;;6.40;1.90;;;30.80;99.90;;;;;;5113612;28;20193;-69
2024/01/28 04:15:49;;;;;;;8.60;2.47;;;30.20;99.90;;;;;;5113894;28;20207;-69
2024/01/28 04:18:17;;;;;;;10.17;2.63;;;29.80;99.90;;;;;;5112451;28;20704;-68
2024/01/28 04:20:45;;;;;;;6.67;2.30;;;29.40;99.90;;;;;;5099209;28;20182;-69
2024/01/28 04:23:14;;;;;;;7.20;1.93;;;29.30;99.90;;;;;;5113447;28;20182;-69
2024/01/28 04:25:43;;;;;;;7.60;2.37;;;29.70;99.90;;;;;;5112703;28;20637;-69
2024/01/28 04:28:11;;;;;;;13.20;2.70;;;30.20;99.90;;;;;;5110531;28;20685;-68
2024/01/28 04:30:38;;;;;;;8.90;2.83;;;29.70;99.90;;;;;;5112774;28;20273;-71
2024/01/28 04:33:06;;;;;;;7.47;1.90;;;29.70;99.90;;;;;;5112561;28;20171;-73
2024/01/28 04:35:34;;;;;;;7.23;2.20;;;30.20;99.90;;;;;;5113053;28;20257;-68
2024/01/28 04:38:01;;;;;;;9.73;2.30;;;30.40;99.90;;;;;;5110271;28;20233;-69
2024/01/28 04:40:29;;;;;;;7.40;2.00;;;30.80;99.90;;;;;;5112427;28;20190;-71
2024/01/28 04:42:57;;;;;;;6.93;2.40;;;31.20;99.90;;;;;;5112521;28;20177;-70
2024/01/28 04:45:25;;;;;;;10.33;2.50;;;30.70;99.90;;;;;;5113022;28;20178;-69
2024/01/28 04:47:53;;;;;;;12.73;2.43;;;30.10;99.90;;;;;;5112896;28;20174;-68
2024/01/28 04:50:20;;;;;;;8.70;2.80;;;30.10;99.90;;;;;;5111445;28;20246;-68
2024/01/28 04:52:48;;;;;;;9.87;2.27;;;30.10;99.90;;;;;;5113026;28;20193;-68
2024/01/28 04:55:16;;;;;;;9.50;2.50;;;30.50;99.90;;;;;;5114127;28;20179;-67
2024/01/28 04:57:43;;;;;;;6.47;2.07;;;30.70;99.90;;;;;;5114129;28;20232;-68
2024/01/28 05:00:14;;;;;;;7.10;2.10;;;31.00;99.90;;;;;;5113893;28;20190;-68
2024/01/28 05:02:41;;;;;;;9.77;2.40;;;30.40;99.90;;;;;;5113892;28;20186;-69
2024/01/28 05:05:09;;;;;;;6.97;2.03;;;29.70;99.90;;;;;;5113971;28;20177;-68
2024/01/28 05:07:37;;;;;;;7.70;2.10;;;30.10;99.90;;;;;;5113791;28;20581;-72
2024/01/28 05:10:05;;;;;;;8.30;2.17;;;30.30;99.90;;;;;;5113884;28;20203;-69
2024/01/28 05:12:33;;;;;;;6.33;1.90;;;30.50;99.90;;;;;;5113786;28;20173;-70
2024/01/28 05:15:02;;;;;;;7.47;2.17;;;30.40;99.90;;;;;;5093161;28;20265;-69
2024/01/28 05:17:29;;;;;;;6.97;1.77;;;29.80;99.90;;;;;;5113219;28;20235;-70
2024/01/28 05:19:57;;;;;;;9.00;2.10;;;30.20;99.90;;;;;;5095454;28;20554;-68
2024/01/28 05:22:25;;;;;;;7.27;1.80;;;30.60;99.90;;;;;;5113509;28;20186;-69
2024/01/28 05:24:54;;;;;;;6.60;2.10;;;30.80;99.90;;;;;;5113595;28;20205;-69
2024/01/28 05:27:22;;;;;;;7.93;1.57;;;30.70;99.90;;;;;;5113532;28;20178;-70
2024/01/28 05:29:49;;;;;;;6.73;2.13;;;30.60;99.90;;;;;;5111238;28;20646;-70
2024/01/28 05:32:18;;;;;;;8.30;1.90;;;30.40;99.90;;;;;;5113325;28;20170;-73
2024/01/28 05:34:45;;;;;;;11.73;2.22;;;30.10;99.90;;;;;;5113366;28;20186;-74
2024/01/28 05:37:15;;;;;;;9.00;2.40;;;30.20;99.90;;;;;;5113294;28;20222;-68
2024/01/28 05:39:44;;;;;;;9.33;2.40;;;30.10;99.90;;;;;;5113204;28;20664;-71
2024/01/28 05:42:11;;;;;;;7.57;2.47;;;29.60;99.90;;;;;;5113329;28;20197;-70
2024/01/28 05:44:39;;;;;;;12.40;2.47;;;29.60;99.90;;;;;;5113350;28;20171;-69
2024/01/28 05:47:07;;;;;;;7.77;2.00;;;29.80;99.90;;;;;;5095009;28;20171;-69
2024/01/28 05:49:34;;;;;;;5.77;1.70;;;30.00;99.90;;;;;;5113223;28;20244;-69
2024/01/28 05:52:02;;;;;;;5.73;1.53;;;29.90;99.90;;;;;;5113240;28;20186;-69
2024/01/28 05:54:30;;;;;;;13.30;2.60;;;29.60;99.90;;;;;;5094808;28;20583;-69
2024/01/28 05:56:58;;;;;;;8.63;2.27;;;30.00;99.90;;;;;;5113418;28;20332;-69
2024/01/28 05:59:26;;;;;;;8.33;2.03;;;29.70;99.90;;;;;;5113623;28;20261;-69
2024/01/28 06:01:54;;;;;;;9.40;3.03;;;29.90;99.90;;;;;;5113609;28;20170;-70
2024/01/28 06:04:21;;;;;;;10.30;2.60;;;29.20;99.90;;;;;;5113341;28;20337;-70
2024/01/28 06:06:49;;;;;;;7.97;2.27;;;29.30;99.90;;;;;;5113347;28;20182;-70
2024/01/28 06:09:19;;;;;;;11.70;2.63;;;29.50;99.90;;;;;;5113562;28;20197;-69
2024/01/28 06:15:41;;;;;;;8.93;2.27;;;29.90;99.90;;;;;;5050961;28;20227;-70
2024/01/28 06:18:09;;;;;;;6.87;1.87;;;30.10;99.90;;;;;;5033729;28;20674;-68
2024/01/28 06:20:37;;;;;;;11.27;2.60;;;30.20;99.90;;;;;;5051094;28;20287;-69
2024/01/28 06:23:04;;;;;;;8.30;2.17;;;30.20;99.90;;;;;;5050420;28;20184;-72
2024/01/28 06:25:32;;;;;;;8.13;2.33;;;30.10;99.90;;;;;;5056217;28;20187;-70
2024/01/28 06:28:00;;;;;;;6.47;1.87;;;30.10;99.90;;;;;;5064082;28;20198;-69
2024/01/28 06:30:29;;;;;;;11.07;1.90;;;29.80;99.90;;;;;;5059575;28;20184;-72
2024/01/28 06:32:56;;;;;;;7.70;2.77;;;29.30;99.90;;;;;;5060684;28;20250;-71
2024/01/28 06:35:24;;;;;;;9.23;1.90;;;28.70;99.90;;;;;;5059477;28;20263;-70
2024/01/28 06:37:52;;;;;;;10.43;2.37;;;28.30;99.90;;;;;;5046273;28;20226;-70
2024/01/28 06:40:19;;;;;;;9.50;2.07;;;28.50;99.90;;;;;;5068317;28;20184;-72
2024/01/28 06:42:47;;;;;;;8.47;2.77;;;28.50;99.90;;;;;;5068893;28;20196;-68
2024/01/28 06:45:15;;;;;;;6.97;2.07;;;28.10;99.90;;;;;;5067182;28;20654;-69
2024/01/28 06:47:45;;;;;;;4.43;1.90;;;27.80;99.90;;;;;;5068741;28;20510;-69
2024/01/28 06:50:13;;;;;;;10.40;2.73;;;27.50;99.90;;;;;;5086636;28;20273;-71
2024/01/28 06:52:43;;;;;;;9.40;2.67;;;27.40;99.90;;;;;;5090653;28;20214;-72
2024/01/28 06:55:11;;;;;;;10.67;2.33;;;27.10;99.90;;;;;;5091055;28;20175;-71
2024/01/28 07:01:00;;;;;;;9.47;2.20;;;27.20;99.90;;;;;;5090151;28;20615;-73
2024/01/28 07:03:28;;;;;;;10.20;2.63;;;27.60;99.90;;;;;;5091179;28;20186;-72
2024/01/28 07:05:56;;;;;;;10.30;1.90;;;27.90;99.90;;;;;;5090510;28;20179;-71
2024/01/28 07:08:23;;;;;;;8.70;2.00;;;28.00;99.90;;;;;;5090644;28;20183;-71
2024/01/28 07:10:51;;;;;;;7.50;2.53;;;28.00;99.90;;;;;;5090873;28;20182;-71
2024/01/28 07:13:19;;;;;;;11.53;2.03;;;27.90;99.90;;;;;;5091106;28;20175;-70
2024/01/28 07:15:46;;;;;;;9.23;2.83;;;27.80;99.90;;;;;;5092716;28;20191;-70
2024/01/28 07:18:14;;;;;;;7.43;2.43;;;27.90;99.90;;;;;;5108077;28;20230;-72
2024/01/28 07:20:42;;;;;;;12.17;2.60;;;28.00;99.90;;;;;;5115010;28;20186;-70
2024/01/28 07:23:09;;;;;;;10.40;3.37;;;28.10;99.90;;;;;;5114532;28;20179;-70
2024/01/28 07:25:37;;;;;;;6.60;2.53;;;27.90;99.90;;;;;;5114645;28;20183;-68
2024/01/28 07:28:05;;;;;;;7.93;2.67;;;28.10;99.90;;;;;;5114646;28;20259;-68
2024/01/28 07:30:33;;;;;;;9.27;2.10;;;27.90;99.90;;;;;;5114374;28;20542;-70
2024/01/28 07:33:00;;;;;;;9.03;2.23;;;27.70;99.90;;;;;;5114870;28;20224;-69
2024/01/28 07:35:28;;;;;;;12.10;2.70;;;27.40;99.90;;;;;;5114131;28;20193;-69
2024/01/28 07:37:56;;;;;;;10.37;2.23;;;27.20;99.90;;;;;;5113747;28;20209;-69
2024/01/28 07:40:23;;;;;;;8.30;1.90;;;26.90;99.90;;;;;;5114504;28;20196;-69
2024/01/28 07:42:51;;;;;;;10.30;2.00;;;26.60;99.90;;;;;;5114330;28;20186;-69
2024/01/28 07:45:19;;;;;;;8.67;2.40;;;26.50;99.90;;;;;;5108428;28;20274;-69
2024/01/28 07:47:47;;;;;;;8.40;2.10;;;26.50;99.90;;;;;;5093896;28;20194;-69
2024/01/28 07:50:15;;;;;;;8.53;2.67;;;26.30;99.90;;;;;;5102832;28;20194;-69
2024/01/28 07:52:43;;;;;;;9.00;2.30;;;26.20;99.90;;;;;;5113771;28;20613;-70
2024/01/28 07:55:14;;;;;;;8.27;2.07;;;26.20;99.90;;;;;;5114022;28;20240;-70
2024/01/28 07:57:42;;;;;;;10.23;2.17;;;26.20;99.90;;;;;;5114083;28;20285;-69
2024/01/28 08:00:10;;;;;;;10.80;2.83;;;26.10;99.90;;;;;;5113921;28;20175;-69
2024/01/28 08:02:38;;;;;;;9.67;2.00;;;25.90;99.90;;;;;;5114119;28;20178;-69
2024/01/28 08:05:06;;;;;;;9.10;1.80;;;25.90;99.90;;;;;;5113862;28;20227;-71
2024/01/28 08:07:34;;;;;;;10.80;2.47;;;25.90;99.90;;;;;;5113566;28;20171;-69
2024/01/28 08:10:02;;;;;;;8.03;2.07;;;25.80;99.90;;;;;;5113867;28;20181;-69
2024/01/28 08:12:29;;;;;;;9.03;2.37;;;25.70;99.90;;;;;;5114105;28;20228;-69
2024/01/28 08:14:57;;;;;;;12.80;2.83;;;25.60;99.90;;;;;;5113247;28;20170;-70
2024/01/28 08:17:26;;;;;;;8.20;2.40;;;25.50;99.90;;;;;;5113567;28;20246;-69
2024/01/28 08:19:53;;;;;;;11.13;2.53;;;25.30;99.90;;;;;;5113956;28;20641;-71
2024/01/28 08:22:21;;;;;;;9.50;2.67;;;25.20;99.90;;;;;;5112965;28;20186;-71
2024/01/28 08:24:49;;;;;;;7.60;2.30;;;25.10;99.90;;;;;;5113307;28;20267;-69
2024/01/28 08:27:17;;;;;;;11.60;2.60;;;25.00;99.90;;;;;;5113623;28;20174;-69
2024/01/28 08:29:45;;;;;;;12.20;2.87;;;25.00;99.90;;;;;;5113223;28;20224;-70
2024/01/28 08:32:12;;;;;;;13.10;2.87;;;25.00;99.90;;;;;;5113387;28;20231;-70
2024/01/28 08:34:40;;;;;;;5.07;1.67;;;24.80;99.90;;;;;;5095229;28;20545;-69
2024/01/28 08:37:08;;;;;;;9.17;2.97;;;24.80;99.90;;;;;;5112739;28;20211;-69
2024/01/28 08:39:35;;;;;;;13.60;2.90;;;24.70;99.90;;;;;;5113353;28;20250;-70
2024/01/28 08:42:03;;;;;;;14.43;2.40;;;24.60;99.90;;;;;;5113232;28;20288;-70
2024/01/28 08:44:31;;;;;;;11.77;2.50;;;24.60;99.90;;;;;;5112643;28;20278;-71
2024/01/28 08:46:58;;;;;;;10.60;3.13;;;24.50;99.90;;;;;;5113015;28;20190;-69
2024/01/28 08:49:26;;;;;;;8.60;2.47;;;24.40;99.90;;;;;;5113181;28;20190;-69
2024/01/28 08:51:54;;;;;;;13.00;3.10;;;24.40;99.90;;;;;;5094590;28;20239;-69
2024/01/28 08:54:22;;;;;;;9.53;2.30;;;24.30;99.90;;;;;;5094869;28;20188;-69
2024/01/28 08:56:50;;;;;;;9.93;2.43;;;24.30;99.90;;;;;;5112692;28;20174;-72
2024/01/28 08:59:17;;;;;;;8.73;2.20;;;24.20;99.90;;;;;;5112572;28;20186;-69
2024/01/28 09:01:47;;;;;;;6.17;2.00;;;24.20;99.90;;;;;;5112718;28;20559;-69
2024/01/28 09:04:15;;;;;;;12.23;2.23;;;24.20;99.90;;;;;;5094180;28;20641;-69
2024/01/28 09:06:43;;;;;;;6.83;2.13;;;24.20;99.90;;;;;;5111485;28;20178;-69
2024/01/28 09:09:11;;;;;;;7.13;2.47;;;24.10;99.90;;;;;;5111853;28;20182;-70
2024/01/28 09:11:38;;;;;;;7.90;2.33;;;24.10;99.90;;;;;;5111687;28;20186;-69
2024/01/28 09:14:06;;;;;;;9.07;2.30;;;24.10;99.90;;;;;;5111220;28;20179;-69
2024/01/28 09:16:34;;;;;;;10.23;2.43;;;24.10;99.90;;;;;;5112238;28;20186;-71
2024/01/28 09:19:03;;;;;;;8.23;2.00;;;24.00;99.90;;;;;;5111211;28;20242;-69
2024/01/28 09:21:32;;;;;;;7.77;2.87;;;24.10;99.90;;;;;;5110927;28;20196;-70
2024/01/28 09:23:59;;;;;;;13.70;2.80;;;24.00;99.90;;;;;;5112003;28;20291;-70
2024/01/28 09:26:27;;;;;;;8.90;2.30;;;23.90;99.90;;;;;;5112352;28;20652;-67
2024/01/28 09:28:55;;;;;;;10.43;2.13;;;23.90;99.90;;;;;;5111735;28;20182;-69
2024/01/28 09:31:23;;;;;;;12.40;2.90;;;23.90;99.90;;;;;;5112511;28;20585;-69
2024/01/28 09:33:50;;;;;;;10.27;2.43;;;23.80;99.90;;;;;;5112510;28;20186;-70
2024/01/28 09:36:18;;;;;;;13.17;2.70;;;23.70;99.90;;;;;;5111862;28;20209;-72
2024/01/28 09:38:46;;;;;;;9.13;2.50;;;23.60;99.90;;;;;;5111807;28;20260;-70
2024/01/28 09:41:43;;;;;;;8.50;2.47;;;23.60;99.90;;;;;;5112377;28;20170;-69
2024/01/28 09:44:11;;;;;;;11.57;3.30;;;23.50;99.90;;;;;;5111046;28;20676;-69
2024/01/28 09:46:39;;;;;;;7.93;2.83;;;23.60;99.90;;;;;;5115408;28;20265;-70
2024/01/28 09:49:11;;;;;;;12.53;2.90;;;23.50;99.90;;;;;;5116409;28;20671;-69
2024/01/28 09:51:40;;;;;;;11.90;2.87;;;23.50;99.90;;;;;;5113774;28;20178;-69
2024/01/28 09:54:10;;;;;;;11.30;2.80;;;23.40;99.90;;;;;;5113693;28;20171;-68
2024/01/28 09:56:40;;;;;;;10.67;2.77;;;23.40;99.90;;;;;;5113001;28;20186;-71
2024/01/28 09:59:11;;;;;;;8.83;2.70;;;23.40;99.90;;;;;;5113187;28;20223;-70
2024/01/28 10:01:42;;;;;;;12.63;2.77;;;23.40;99.90;;;;;;5113787;28;20228;-70
2024/01/28 10:04:15;;;;;;;7.80;2.20;;;23.40;99.90;;;;;;5113525;28;20190;-69
2024/01/28 10:06:46;;;;;;;10.67;2.40;;;23.30;99.90;;;;;;5113382;28;20641;-69
2024/01/28 10:09:14;;;;;;;9.03;2.27;;;23.30;99.90;;;;;;5113326;28;20212;-69
2024/01/28 10:11:41;;;;;;;8.23;2.00;;;23.30;99.90;;;;;;5113813;28;20174;-69
2024/01/28 10:14:09;;;;;;;10.23;2.70;;;23.30;99.90;;;;;;5113709;28;20601;-68
2024/01/28 10:16:37;;;;;;;11.30;2.17;;;23.30;99.90;;;;;;5113233;28;20542;-70
2024/01/28 10:19:05;;;;;;;10.13;2.33;;;23.20;99.90;;;;;;5113176;28;20224;-69
2024/01/28 10:21:33;;;;;;;7.20;2.43;;;23.20;99.90;;;;;;5113315;28;20315;-68
2024/01/28 10:24:01;;;;;;;15.13;2.67;;;23.20;99.90;;;;;;5113489;28;20583;-69
2024/01/28 10:26:28;;;;;;;8.90;2.40;;;23.10;99.90;;;;;;5113030;28;20182;-70
2024/01/28 10:28:57;;;;;;;7.03;1.87;;;23.10;99.90;;;;;;5113343;28;20185;-70
2024/01/28 10:31:24;;;;;;;13.03;2.07;;;23.10;99.90;;;;;;5113313;28;20178;-70
2024/01/28 10:33:52;;;;;;;12.43;2.10;;;23.10;99.90;;;;;;5113587;28;20175;-70
2024/01/28 10:36:20;;;;;;;11.50;2.33;;;23.10;99.90;;;;;;5113028;28;20174;-69
2024/01/28 10:38:48;;;;;;;8.53;2.10;;;23.00;99.90;;;;;;5113149;28;20222;-71
2024/01/28 10:41:19;;;;;;;11.87;2.30;;;23.00;99.90;;;;;;5113003;28;20655;-69
2024/01/28 10:44:08;;;;;;;9.57;2.73;;;22.90;99.90;;;;;;5113283;28;20641;-70
2024/01/28 10:46:39;;;;;;;10.57;2.37;;;23.00;99.90;;;;;;5112981;28;20178;-70
2024/01/28 10:49:09;;;;;;;9.80;2.07;;;22.90;99.90;;;;;;5112664;28;20178;-71
2024/01/28 10:51:38;;;;;;;9.50;2.37;;;22.90;99.90;;;;;;5117251;28;20316;-70
2024/01/28 10:54:08;;;;;;;9.77;2.67;;;22.90;99.90;;;;;;5116534;28;20204;-70
2024/01/28 10:56:40;;;;;;;9.87;1.87;;;22.90;99.90;;;;;;5116538;28;20561;-70
2024/01/28 10:59:09;;;;;;;13.57;2.40;;;22.90;99.90;;;;;;5116326;28;20221;-70
2024/01/28 11:01:37;;;;;;;10.73;2.10;;;22.90;99.90;;;;;;5116714;28;20345;-70
2024/01/28 11:04:06;;;;;;;9.60;2.07;;;23.00;99.90;;;;;;5116997;28;20187;-70
2024/01/28 11:06:35;;;;;;;10.27;2.40;;;23.10;99.90;;;;;;5116949;28;20625;-69
2024/01/28 11:09:03;;;;;;;5.13;1.77;;;23.10;99.90;;;;;;5116189;28;20182;-69
2024/01/28 11:11:31;;;;;;;14.30;2.20;;;23.20;99.90;;;;;;5116855;28;20171;-69
2024/01/28 11:13:58;;;;;;;8.07;2.10;;;23.30;99.90;;;;;;5116608;28;20540;-69
2024/01/28 11:16:30;;;;;;;12.17;2.37;;;23.30;99.90;;;;;;5096271;28;20167;-69
2024/01/28 11:19:04;;;;;;;6.50;1.70;;;23.30;99.90;;;;;;5111957;28;20238;-69
2024/01/28 11:21:34;;;;;;;8.13;2.07;;;23.40;99.90;;;;;;5115837;28;20185;-69
2024/01/28 11:24:11;;;;;;;5.73;1.80;;;23.40;99.90;;;;;;5116645;28;20175;-69
2024/01/28 11:26:44;;;;;;;7.73;2.60;;;23.40;99.90;;;;;;5116626;28;20169;-71
2024/01/28 11:29:12;;;;;;;6.30;1.60;;;23.40;99.90;;;;;;5116179;28;20191;-69
2024/01/28 11:31:41;;;;;;;7.17;2.40;;;23.40;99.90;;;;;;5116180;28;20231;-69
2024/01/28 11:34:16;;;;;;;10.67;2.23;;;23.40;99.90;;;;;;5115816;28;20190;-70
2024/01/28 11:36:51;;;;;;;7.97;1.97;;;23.40;99.90;;;;;;5099151;28;20227;-71
2024/01/28 11:39:39;;;;;;;8.10;2.33;;;23.40;99.90;;;;;;5115786;28;20278;-69
2024/01/28 11:42:07;;;;;;;8.17;2.33;;;23.40;99.90;;;;;;5115801;28;20724;-70
2024/01/28 11:44:36;;;;;;;8.70;2.00;;;23.40;99.90;;;;;;5116060;28;20196;-70
2024/01/28 11:47:04;;;;;;;7.67;1.70;;;23.40;99.90;;;;;;5116230;28;20171;-71
2024/01/28 11:49:32;;;;;;;5.77;2.03;;;23.40;99.90;;;;;;5115999;28;20224;-69
2024/01/28 11:52:00;;;;;;;6.80;1.63;;;23.30;99.90;;;;;;5116139;28;20671;-69
2024/01/28 11:54:27;;;;;;;5.57;2.00;;;23.50;99.90;;;;;;5116022;28;20196;-69
2024/01/28 11:56:55;;;;;;;12.17;2.20;;;23.40;99.90;;;;;;5098029;28;20175;-71
2024/01/28 11:59:23;;;;;;;9.40;2.30;;;23.50;99.90;;;;;;5115474;28;20171;-70
2024/01/28 12:01:52;;;;;;;8.17;1.80;;;23.40;99.90;;;;;;5115377;28;20656;-69
2024/01/28 12:04:21;;;;;;;10.50;2.43;;;23.40;99.90;;;;;;5115826;28;20178;-69
2024/01/28 12:06:49;;;;;;;6.73;1.90;;;23.40;99.90;;;;;;5115748;28;20587;-69
2024/01/28 12:09:17;;;;;;;6.00;1.97;;;23.30;99.90;;;;;;5115478;28;20185;-70
2024/01/28 12:11:44;;;;;;;8.60;1.83;;;23.40;99.90;;;;;;5115929;28;20228;-70
2024/01/28 12:14:12;;;;;;;8.40;1.97;;;23.30;99.90;;;;;;5115664;28;20174;-69
2024/01/28 12:16:40;;;;;;;11.10;2.57;;;23.40;99.90;;;;;;5115336;28;20641;-70
2024/01/28 12:19:14;;;;;;;9.10;2.10;;;23.30;99.90;;;;;;5115190;28;20259;-71
2024/01/28 12:21:42;;;;;;;9.77;1.90;;;23.30;99.90;;;;;;5095059;28;20274;-69
2024/01/28 12:24:11;;;;;;;6.53;2.00;;;23.40;99.90;;;;;;5095088;28;20171;-69
2024/01/28 12:26:43;;;;;;;6.47;1.60;;;23.40;99.90;;;;;;5109990;28;20235;-69
2024/01/28 12:29:12;;;;;;;7.90;2.30;;;23.30;99.90;;;;;;5115229;28;20676;-69
2024/01/28 12:31:40;;;;;;;7.03;1.87;;;23.30;99.90;;;;;;5115231;28;20179;-70
2024/01/28 12:34:17;;;;;;;7.63;2.00;;;23.40;99.90;;;;;;5115005;28;20180;-69
2024/01/28 12:36:45;;;;;;;9.53;1.77;;;23.40;99.90;;;;;;5114865;28;20223;-69
2024/01/28 12:39:12;;;;;;;7.77;2.03;;;23.30;99.90;;;;;;5114651;28;20207;-70
2024/01/28 12:41:40;;;;;;;8.23;1.80;;;23.30;99.90;;;;;;5114528;28;20188;-69
2024/01/28 12:44:09;;;;;;;10.00;2.13;;;23.30;99.90;;;;;;5114813;28;20211;-68
2024/01/28 12:46:37;;;;;;;9.33;2.13;;;23.30;99.90;;;;;;5114499;28;20177;-68
2024/01/28 12:49:04;;;;;;;5.83;2.77;;;23.30;99.90;;;;;;5114076;28;20593;-69
2024/01/28 12:51:32;;;;;;;6.17;1.90;;;23.40;99.90;;;;;;5114137;28;20179;-69
2024/01/28 12:54:00;;;;;;;7.47;2.00;;;23.30;99.90;;;;;;5113744;28;20182;-69
2024/01/28 12:56:27;;;;;;;8.40;2.27;;;23.30;99.90;;;;;;5113855;28;20257;-69
2024/01/28 12:58:55;;;;;;;7.33;1.97;;;23.30;99.90;;;;;;5113118;28;20229;-68
2024/01/28 13:01:23;;;;;;;8.67;2.07;;;23.30;99.90;;;;;;5113338;28;20175;-70
2024/01/28 13:03:51;;;;;;;7.60;2.37;;;23.40;99.90;;;;;;5113848;28;20171;-71